Time;durP1;ratioP1;P1;durP2;ratioP2;P2;SDS_P1;SDS_P2;PMS_P1;PMS_P2;Temp;Humidity;BMP_temperature;BMP_pressure;BME280_temperature;BME280_humidity;BME280_pressure;Samples;Min_cycle;Max_cycle;Signal;HPM_P1;HPM_P2
2022/06/26 00:00:36;;;;;;;23.43;17.23;;;21.60;99.90;;;;;;5243862;28;20658;-47
2022/06/26 00:03:07;;;;;;;20.90;17.47;;;21.60;99.90;;;;;;5245041;28;20198;-47
2022/06/26 00:05:38;;;;;;;20.03;16.93;;;21.60;99.90;;;;;;5244808;28;20225;-47
2022/06/26 00:08:09;;;;;;;19.00;17.00;;;21.60;99.90;;;;;;5241322;28;20195;-47
2022/06/26 00:10:39;;;;;;;22.30;16.97;;;21.60;99.90;;;;;;5242272;28;20777;-47
2022/06/26 00:13:10;;;;;;;20.93;17.70;;;21.60;99.90;;;;;;5247249;28;20232;-46
2022/06/26 00:15:41;;;;;;;22.63;18.30;;;21.60;99.90;;;;;;5226822;28;20182;-48
2022/06/26 00:18:12;;;;;;;18.10;15.17;;;21.60;99.90;;;;;;5227271;28;20209;-48
2022/06/26 00:20:43;;;;;;;18.20;15.90;;;21.60;99.90;;;;;;5244251;28;20476;-47
2022/06/26 00:23:13;;;;;;;18.50;15.97;;;21.60;99.90;;;;;;5247117;28;20245;-48
2022/06/26 00:25:44;;;;;;;15.37;13.90;;;21.60;99.90;;;;;;5247212;28;20285;-48
2022/06/26 00:28:14;;;;;;;26.03;16.50;;;21.60;99.90;;;;;;5233312;28;20565;-48
2022/06/26 00:30:45;;;;;;;18.63;16.70;;;21.60;99.90;;;;;;5246633;28;20206;-48
2022/06/26 00:33:16;;;;;;;22.80;17.60;;;21.50;99.90;;;;;;5247059;28;20190;-48
2022/06/26 00:35:47;;;;;;;20.03;16.70;;;21.50;99.90;;;;;;5231701;28;20190;-47
2022/06/26 00:38:17;;;;;;;17.40;15.30;;;21.50;99.90;;;;;;5241132;28;20191;-46
2022/06/26 00:40:48;;;;;;;22.60;15.03;;;21.50;99.90;;;;;;5245841;28;20217;-46
2022/06/26 00:43:19;;;;;;;16.07;14.37;;;21.50;99.90;;;;;;5228726;28;20191;-49
2022/06/26 00:45:49;;;;;;;27.77;16.50;;;21.50;99.90;;;;;;5240581;28;20635;-47
2022/06/26 00:48:20;;;;;;;28.40;18.10;;;21.40;99.90;;;;;;5229263;28;20197;-48
2022/06/26 00:50:51;;;;;;;22.27;14.80;;;21.40;99.90;;;;;;5230131;28;20763;-48
2022/06/26 00:53:22;;;;;;;23.13;17.90;;;21.30;99.90;;;;;;5245816;28;20178;-47
2022/06/26 00:55:53;;;;;;;25.80;17.80;;;21.30;99.90;;;;;;5236269;28;20982;-48
2022/06/26 00:58:24;;;;;;;18.97;17.03;;;21.20;99.90;;;;;;5249852;28;20264;-49
2022/06/26 01:00:55;;;;;;;26.73;17.43;;;21.20;99.90;;;;;;5259599;28;20582;-48
2022/06/26 01:03:26;;;;;;;20.27;18.07;;;21.20;99.90;;;;;;5235347;28;20190;-48
2022/06/26 01:05:57;;;;;;;21.70;17.60;;;21.20;99.90;;;;;;5229570;28;20809;-47
2022/06/26 01:08:27;;;;;;;23.63;18.50;;;21.20;99.90;;;;;;5230717;28;20179;-47
2022/06/26 01:10:58;;;;;;;22.03;17.67;;;21.20;99.90;;;;;;5248298;28;20202;-47
2022/06/26 01:13:29;;;;;;;20.60;17.03;;;21.20;99.90;;;;;;5245231;28;20186;-47
2022/06/26 01:15:59;;;;;;;20.00;16.83;;;21.10;99.90;;;;;;5207518;28;20213;-46
2022/06/26 01:18:30;;;;;;;20.87;16.93;;;21.10;99.90;;;;;;5237161;28;20186;-47
2022/06/26 01:21:01;;;;;;;24.10;15.20;;;21.10;99.90;;;;;;5241456;28;21319;-47
2022/06/26 01:23:31;;;;;;;16.50;14.70;;;21.10;99.90;;;;;;5241580;28;20194;-47
2022/06/26 01:26:02;;;;;;;21.20;16.10;;;21.10;99.90;;;;;;5223605;28;20229;-46
2022/06/26 01:28:33;;;;;;;23.40;17.93;;;21.00;99.90;;;;;;5243472;28;20187;-46
2022/06/26 01:31:04;;;;;;;20.00;15.93;;;21.00;99.90;;;;;;5243515;28;20995;-46
2022/06/26 01:33:38;;;;;;;20.20;16.47;;;20.90;99.90;;;;;;5232590;28;20588;-47
2022/06/26 01:36:08;;;;;;;19.80;16.30;;;20.90;99.90;;;;;;5238420;28;20201;-47
2022/06/26 01:38:39;;;;;;;20.90;17.00;;;20.90;99.90;;;;;;5242350;28;20452;-47
2022/06/26 01:41:10;;;;;;;34.00;18.70;;;20.90;99.90;;;;;;5243258;28;20206;-46
2022/06/26 01:43:41;;;;;;;23.20;17.90;;;20.80;99.90;;;;;;5227007;28;20187;-47
2022/06/26 01:46:11;;;;;;;22.57;18.13;;;20.80;99.90;;;;;;5245763;28;20214;-47
2022/06/26 01:48:42;;;;;;;21.43;17.80;;;20.80;99.90;;;;;;5243420;28;20186;-47
2022/06/26 01:51:13;;;;;;;20.50;18.30;;;20.80;99.90;;;;;;5251865;28;20189;-47
2022/06/26 01:53:44;;;;;;;20.53;17.33;;;20.80;99.90;;;;;;5243108;28;20459;-47
2022/06/26 01:56:15;;;;;;;20.30;17.97;;;20.80;99.90;;;;;;5228699;28;20436;-47
2022/06/26 01:58:45;;;;;;;19.57;16.77;;;20.80;99.90;;;;;;5245081;28;20196;-47
2022/06/26 02:01:16;;;;;;;21.20;18.27;;;20.80;99.90;;;;;;5236817;28;20183;-47
2022/06/26 02:03:47;;;;;;;20.73;17.30;;;20.80;99.90;;;;;;5236369;28;20264;-47
2022/06/26 02:06:18;;;;;;;21.80;17.73;;;20.80;99.90;;;;;;5220947;28;20210;-46
2022/06/26 02:08:48;;;;;;;26.20;19.70;;;20.80;99.90;;;;;;5228341;28;20174;-48
2022/06/26 02:14:09;;;;;;;19.63;17.60;;;20.70;99.90;;;;;;5242524;28;20193;-48
2022/06/26 02:16:39;;;;;;;24.40;19.90;;;20.70;99.90;;;;;;5243887;28;20489;-48
2022/06/26 02:19:10;;;;;;;23.07;20.03;;;20.50;99.90;;;;;;5228261;28;20479;-47
2022/06/26 02:21:41;;;;;;;23.30;20.30;;;20.60;99.90;;;;;;5236711;28;20186;-48
2022/06/26 02:24:11;;;;;;;28.13;20.50;;;20.60;99.90;;;;;;5241865;28;20231;-48
2022/06/26 02:26:42;;;;;;;27.73;21.20;;;20.60;99.90;;;;;;5237152;28;20233;-48
2022/06/26 02:29:13;;;;;;;23.30;20.03;;;20.60;99.90;;;;;;5241435;28;20668;-47
2022/06/26 02:31:43;;;;;;;28.67;20.33;;;20.50;99.90;;;;;;5232597;28;20197;-48
2022/06/26 02:34:14;;;;;;;33.83;21.57;;;20.50;99.90;;;;;;5247842;28;20170;-48
2022/06/26 02:36:45;;;;;;;21.90;19.57;;;20.50;99.90;;;;;;5237120;28;20657;-48
2022/06/26 02:39:15;;;;;;;26.97;20.50;;;20.50;99.90;;;;;;5242059;28;20802;-47
2022/06/26 02:41:46;;;;;;;23.27;18.87;;;20.50;99.90;;;;;;5242384;28;20277;-48
2022/06/26 02:44:16;;;;;;;26.40;21.93;;;20.50;99.90;;;;;;5238672;28;20185;-48
2022/06/26 02:46:47;;;;;;;25.47;21.00;;;20.40;99.90;;;;;;5240852;28;20213;-48
2022/06/26 02:49:18;;;;;;;30.93;20.83;;;20.50;99.90;;;;;;5243163;28;20198;-47
2022/06/26 02:51:48;;;;;;;26.83;20.13;;;20.40;99.90;;;;;;5223899;28;20314;-48
2022/06/26 02:54:19;;;;;;;22.50;20.20;;;20.40;99.90;;;;;;5244080;28;20182;-48
2022/06/26 02:56:49;;;;;;;25.47;20.23;;;20.40;99.90;;;;;;5239719;28;20262;-48
2022/06/26 02:59:20;;;;;;;33.00;23.43;;;20.40;99.90;;;;;;5243705;28;20740;-48
2022/06/26 03:01:50;;;;;;;34.57;21.23;;;20.50;99.90;;;;;;5244149;28;20297;-48
2022/06/26 03:04:21;;;;;;;27.43;21.60;;;20.50;99.90;;;;;;5243746;28;20182;-48
2022/06/26 03:06:52;;;;;;;25.60;21.37;;;20.50;99.90;;;;;;5242033;28;20248;-48
2022/06/26 03:09:22;;;;;;;25.00;21.60;;;20.50;99.90;;;;;;5239335;28;20205;-47
2022/06/26 03:11:53;;;;;;;26.50;22.07;;;20.40;99.90;;;;;;5237669;28;20264;-47
2022/06/26 03:14:23;;;;;;;25.50;19.30;;;20.60;99.90;;;;;;5241824;28;20288;-47
2022/06/26 03:16:54;;;;;;;22.77;19.53;;;20.60;99.90;;;;;;5244197;28;20642;-48
2022/06/26 03:19:25;;;;;;;21.90;19.17;;;20.70;99.90;;;;;;5242934;22;20318;-45
2022/06/26 03:21:55;;;;;;;21.77;19.50;;;20.70;99.90;;;;;;5227306;28;20651;-45
2022/06/26 03:24:26;;;;;;;24.80;20.27;;;20.80;99.90;;;;;;5230655;28;20271;-48
2022/06/26 03:26:56;;;;;;;23.27;19.13;;;20.90;99.90;;;;;;5227657;28;20213;-46
2022/06/26 03:29:28;;;;;;;24.70;19.23;;;20.90;99.90;;;;;;5230166;28;20671;-46
2022/06/26 03:31:58;;;;;;;23.57;19.43;;;21.00;99.90;;;;;;5225569;28;20191;-46
2022/06/26 03:34:29;;;;;;;24.90;21.10;;;21.00;99.90;;;;;;5226019;28;20429;-46
2022/06/26 03:37:00;;;;;;;27.87;20.63;;;21.10;99.90;;;;;;5205186;28;20194;-46
2022/06/26 03:39:30;;;;;;;23.33;20.47;;;21.20;99.90;;;;;;5203299;28;20678;-46
2022/06/26 03:42:01;;;;;;;23.10;20.03;;;21.20;99.90;;;;;;5219388;28;20183;-46
2022/06/26 03:44:31;;;;;;;31.33;19.50;;;21.30;99.90;;;;;;5223709;28;20582;-44
2022/06/26 03:47:02;;;;;;;24.77;21.10;;;21.40;99.90;;;;;;5202747;28;20257;-45
2022/06/26 03:49:33;;;;;;;29.30;19.80;;;21.40;99.90;;;;;;5202278;28;20199;-46
2022/06/26 03:52:04;;;;;;;21.90;18.23;;;21.50;99.90;;;;;;5207553;28;20619;-45
2022/06/26 03:54:35;;;;;;;20.60;18.10;;;21.60;99.90;;;;;;5203695;28;20183;-45
2022/06/26 03:57:05;;;;;;;22.77;18.73;;;21.70;99.90;;;;;;5219485;28;20460;-46
2022/06/26 03:59:36;;;;;;;20.60;18.30;;;21.80;99.90;;;;;;5184354;28;20204;-46
2022/06/26 04:02:07;;;;;;;20.97;16.27;;;21.90;99.90;;;;;;5211521;28;20269;-45
2022/06/26 04:04:38;;;;;;;22.07;17.67;;;22.10;99.90;;;;;;5202163;28;20464;-46
2022/06/26 04:07:08;;;;;;;22.70;17.07;;;22.10;99.90;;;;;;5209775;28;20261;-44
2022/06/26 04:09:39;;;;;;;18.33;16.27;;;22.20;99.90;;;;;;5209643;28;20265;-45
2022/06/26 04:12:10;;;;;;;18.43;14.07;;;22.40;99.90;;;;;;5217834;28;20184;-46
2022/06/26 04:14:41;;;;;;;16.07;14.47;;;22.60;99.90;;;;;;5209974;28;20215;-45
2022/06/26 04:17:12;;;;;;;18.27;15.63;;;22.80;99.90;;;;;;5216376;28;20191;-46
2022/06/26 04:19:42;;;;;;;18.97;15.47;;;23.10;99.90;;;;;;5225082;28;20522;-44
2022/06/26 04:22:13;;;;;;;13.57;12.17;;;23.30;99.90;;;;;;5238302;28;20187;-45
2022/06/26 04:24:43;;;;;;;15.33;13.40;;;23.50;99.90;;;;;;5214515;28;20199;-46
2022/06/26 04:27:14;;;;;;;13.27;11.77;;;23.80;99.90;;;;;;5203292;28;20294;-46
2022/06/26 04:29:45;;;;;;;28.67;13.80;;;24.10;99.90;;;;;;5218522;28;20207;-46
2022/06/26 04:32:15;;;;;;;13.57;12.27;;;24.50;99.90;;;;;;5207736;28;20188;-46
2022/06/26 04:34:46;;;;;;;13.17;11.87;;;24.70;99.90;;;;;;5223103;28;20191;-46
2022/06/26 04:37:18;;;;;;;14.83;13.33;;;25.00;99.90;;;;;;5236341;28;20188;-45
2022/06/26 04:39:48;;;;;;;12.10;10.37;;;25.30;99.90;;;;;;5222512;28;20250;-45
2022/06/26 04:42:19;;;;;;;13.60;11.10;;;25.70;99.90;;;;;;5222510;28;20437;-45
2022/06/26 04:44:50;;;;;;;13.77;11.30;;;26.30;99.90;;;;;;5213786;28;20658;-46
2022/06/26 04:47:20;;;;;;;12.03;10.50;;;26.90;99.90;;;;;;5205835;28;20202;-46
2022/06/26 04:49:51;;;;;;;11.27;9.97;;;27.60;99.90;;;;;;5217332;28;20238;-45
2022/06/26 04:52:21;;;;;;;10.87;9.60;;;28.50;99.90;;;;;;5221200;28;20627;-45
2022/06/26 04:54:52;;;;;;;9.53;8.60;;;29.50;99.10;;;;;;5201185;28;20203;-47
2022/06/26 04:57:23;;;;;;;10.00;9.10;;;30.10;95.60;;;;;;5222208;28;20744;-48
2022/06/26 04:59:53;;;;;;;12.13;10.87;;;30.00;92.30;;;;;;5217282;28;20563;-46
2022/06/26 05:02:24;;;;;;;10.00;9.10;;;29.20;92.20;;;;;;5213971;28;20183;-45
2022/06/26 05:04:54;;;;;;;14.37;10.00;;;28.30;93.80;;;;;;5204371;28;20198;-45
2022/06/26 05:07:25;;;;;;;11.27;10.13;;;27.70;96.10;;;;;;5222616;28;20214;-44
2022/06/26 05:09:56;;;;;;;13.13;11.73;;;26.90;98.50;;;;;;5206397;28;20230;-45
2022/06/26 05:12:27;;;;;;;11.47;10.37;;;26.30;99.90;;;;;;5206894;28;20179;-46
2022/06/26 05:14:57;;;;;;;10.03;9.10;;;25.90;99.90;;;;;;5202842;28;20194;-45
2022/06/26 05:17:28;;;;;;;10.87;9.80;;;25.60;99.90;;;;;;5200503;28;20447;-44
2022/06/26 05:19:58;;;;;;;13.83;10.87;;;25.50;99.90;;;;;;5204359;28;20745;-46
2022/06/26 05:22:29;;;;;;;11.97;10.77;;;25.40;99.90;;;;;;5209221;28;20187;-44
2022/06/26 05:25:00;;;;;;;9.77;8.97;;;25.30;99.90;;;;;;5226480;28;20193;-45
2022/06/26 05:27:30;;;;;;;9.90;8.90;;;25.10;99.90;;;;;;5220811;28;20233;-44
2022/06/26 05:30:01;;;;;;;14.67;10.43;;;25.20;99.90;;;;;;5224004;28;20241;-45
2022/06/26 05:32:31;;;;;;;11.53;10.53;;;25.30;99.90;;;;;;5210832;28;20210;-45
2022/06/26 05:35:03;;;;;;;20.13;12.90;;;25.30;99.90;;;;;;5228026;28;20179;-46
2022/06/26 05:37:33;;;;;;;10.47;9.40;;;25.20;99.90;;;;;;5217873;28;20209;-46
2022/06/26 05:40:05;;;;;;;10.87;9.90;;;25.30;99.90;;;;;;5210556;28;20859;-46
2022/06/26 05:42:35;;;;;;;12.27;11.10;;;25.40;99.90;;;;;;5220532;28;20182;-45
2022/06/26 05:45:06;;;;;;;13.00;11.70;;;25.60;99.90;;;;;;5204491;28;20438;-46
2022/06/26 05:47:37;;;;;;;12.53;11.33;;;25.70;99.90;;;;;;5202908;28;20362;-46
2022/06/26 05:50:08;;;;;;;14.83;12.83;;;25.90;99.90;;;;;;5205554;28;20656;-45
2022/06/26 05:52:39;;;;;;;12.77;11.47;;;26.20;99.90;;;;;;5221690;28;20206;-46
2022/06/26 05:55:09;;;;;;;11.97;10.87;;;26.50;99.90;;;;;;5207967;28;20183;-45
2022/06/26 05:57:40;;;;;;;17.63;11.90;;;26.80;99.90;;;;;;5222990;28;20206;-45
2022/06/26 06:00:11;;;;;;;10.93;9.80;;;26.90;99.90;;;;;;5219865;28;20214;-52
2022/06/26 06:02:42;;;;;;;11.07;9.97;;;27.30;99.90;;;;;;5216546;28;20260;-46
2022/06/26 06:05:13;;;;;;;11.60;10.43;;;29.30;98.90;;;;;;5218973;28;20665;-47
2022/06/26 06:07:43;;;;;;;10.43;9.43;;;30.40;92.60;;;;;;5202201;28;20951;-46
2022/06/26 06:10:14;;;;;;;9.07;8.27;;;32.40;76.70;;;;;;5217516;28;20217;-45
2022/06/26 06:12:45;;;;;;;7.50;7.00;;;34.60;62.30;;;;;;5208982;28;20277;-48
2022/06/26 06:15:16;;;;;;;8.35;7.57;;;36.70;52.50;;;;;;5212890;28;20183;-46
2022/06/26 06:17:47;;;;;;;5.35;5.10;;;38.50;46.20;;;;;;5223954;28;20183;-47
2022/06/26 06:20:20;;;;;;;7.15;6.65;;;39.60;42.90;;;;;;5222692;28;20301;-46
2022/06/26 06:23:00;;;;;;;7.20;6.55;;;40.20;40.40;;;;;;5197693;28;20496;-46
2022/06/26 06:25:31;;;;;;;7.03;6.15;;;40.80;37.40;;;;;;5195337;28;20202;-46
2022/06/26 06:28:02;;;;;;;8.52;5.97;;;40.90;36.50;;;;;;5220933;28;20194;-47
2022/06/26 06:30:32;;;;;;;5.72;5.35;;;41.70;36.30;;;;;;5191423;28;20218;-47
2022/06/26 06:33:03;;;;;;;5.82;5.43;;;42.50;33.40;;;;;;5205475;28;20228;-46
2022/06/26 06:35:34;;;;;;;6.38;5.95;;;42.50;33.20;;;;;;5217347;28;20187;-47
2022/06/26 06:38:04;;;;;;;4.75;4.35;;;42.50;32.40;;;;;;5186214;28;20212;-46
2022/06/26 06:40:35;;;;;;;5.57;4.43;;;42.70;32.50;;;;;;5200029;28;20205;-48
2022/06/26 06:43:10;;;;;;;5.97;5.47;;;42.80;31.50;;;;;;5203737;28;20241;-46
2022/06/26 06:45:41;;;;;;;4.30;4.20;;;43.00;31.60;;;;;;5206217;28;20578;-47
2022/06/26 06:48:11;;;;;;;5.53;5.20;;;43.90;30.50;;;;;;5201687;28;20270;-47
2022/06/26 06:50:42;;;;;;;4.65;4.45;;;44.30;29.90;;;;;;5213712;28;20225;-49
2022/06/26 06:53:13;;;;;;;4.63;4.38;;;45.20;29.30;;;;;;5221050;28;20208;-46
2022/06/26 06:55:44;;;;;;;5.40;5.00;;;45.80;28.70;;;;;;5205202;28;20185;-46
2022/06/26 06:58:14;;;;;;;4.32;4.10;;;46.50;28.00;;;;;;5203711;28;20194;-48
2022/06/26 07:00:45;;;;;;;5.35;4.95;;;46.40;27.40;;;;;;5205224;28;20198;-49
2022/06/26 07:03:15;;;;;;;5.88;5.38;;;45.80;27.60;;;;;;5209683;28;20182;-46
2022/06/26 07:05:46;;;;;;;5.50;5.20;;;44.00;28.30;;;;;;5219964;28;20689;-47
2022/06/26 07:08:17;;;;;;;6.47;5.95;;;42.50;29.70;;;;;;5220942;28;20191;-46
2022/06/26 07:10:47;;;;;;;5.05;4.85;;;39.90;32.90;;;;;;5218216;28;20566;-46
2022/06/26 07:13:18;;;;;;;7.03;6.53;;;39.60;33.90;;;;;;5214737;28;20191;-47
2022/06/26 07:15:48;;;;;;;6.07;5.50;;;39.70;34.10;;;;;;5201713;28;20221;-48
2022/06/26 07:18:22;;;;;;;4.45;4.35;;;41.20;32.90;;;;;;5206102;28;20601;-46
2022/06/26 07:20:52;;;;;;;6.70;4.95;;;42.10;31.60;;;;;;5217597;28;20706;-45
2022/06/26 07:23:23;;;;;;;4.68;4.47;;;43.40;30.00;;;;;;5218524;28;20182;-50
2022/06/26 07:25:55;;;;;;;4.30;4.00;;;44.40;29.20;;;;;;5201817;28;20249;-47
2022/06/26 07:28:26;;;;;;;4.85;4.55;;;45.10;28.40;;;;;;5203717;28;20183;-46
2022/06/26 07:30:57;;;;;;;4.95;4.65;;;45.40;28.20;;;;;;5220254;28;20298;-50
2022/06/26 07:36:17;;;;;;;4.78;4.57;;;44.30;28.30;;;;;;5215589;28;20182;-46
2022/06/26 07:38:47;;;;;;;5.10;4.65;;;43.70;28.70;;;;;;5198944;28;20187;-47
2022/06/26 07:41:18;;;;;;;4.53;4.22;;;42.70;28.70;;;;;;5217383;28;20655;-47
2022/06/26 07:43:49;;;;;;;4.68;4.47;;;42.50;29.20;;;;;;5212547;28;20191;-47
2022/06/26 07:46:20;;;;;;;3.47;3.28;;;42.40;28.30;;;;;;5211580;28;20248;-48
2022/06/26 07:48:50;;;;;;;3.13;3.03;;;42.50;28.10;;;;;;5191718;28;20186;-47
2022/06/26 07:51:21;;;;;;;4.50;3.80;;;41.90;29.00;;;;;;5214970;28;20714;-48
2022/06/26 07:53:52;;;;;;;3.95;3.70;;;42.60;28.70;;;;;;5219228;28;20187;-45
2022/06/26 07:56:25;;;;;;;4.68;4.28;;;43.00;27.90;;;;;;5204074;28;20673;-48
2022/06/26 07:58:56;;;;;;;5.25;4.18;;;42.70;29.00;;;;;;5200944;28;20571;-50
2022/06/26 08:01:30;;;;;;;4.30;4.00;;;42.30;28.40;;;;;;5200585;28;20174;-46
2022/06/26 08:04:01;;;;;;;4.25;4.05;;;41.90;29.00;;;;;;5218980;28;20756;-52
2022/06/26 08:06:32;;;;;;;3.85;3.55;;;41.20;28.40;;;;;;5209236;28;20290;-47
2022/06/26 08:09:03;;;;;;;9.10;3.25;;;41.00;29.20;;;;;;5200554;28;20213;-48
2022/06/26 08:11:34;;;;;;;3.55;3.45;;;40.00;29.40;;;;;;5219164;28;20189;-47
2022/06/26 08:14:04;;;;;;;4.18;3.13;;;39.30;30.20;;;;;;5224773;28;20216;-51
2022/06/26 08:16:35;;;;;;;3.30;3.20;;;39.50;31.00;;;;;;5227850;28;20190;-47
2022/06/26 08:19:06;;;;;;;3.20;3.10;;;40.70;30.10;;;;;;5201505;28;20289;-46
2022/06/26 08:24:26;;;;;;;3.33;3.13;;;41.20;28.50;;;;;;5221195;28;20195;-47
2022/06/26 08:26:57;;;;;;;4.10;3.58;;;40.80;29.20;;;;;;5207134;28;20206;-46
2022/06/26 08:29:28;;;;;;;3.10;3.00;;;41.20;29.10;;;;;;5208998;28;20210;-47
2022/06/26 08:31:59;;;;;;;3.72;2.60;;;41.90;28.50;;;;;;5207748;28;20178;-47
2022/06/26 08:34:30;;;;;;;4.03;3.65;;;41.50;28.10;;;;;;5204686;28;20547;-46
2022/06/26 08:37:00;;;;;;;3.92;3.03;;;40.60;28.80;;;;;;5194078;28;20182;-46
2022/06/26 08:39:35;;;;;;;8.35;2.65;;;39.90;29.50;;;;;;5218248;28;20728;-49
2022/06/26 08:42:06;;;;;;;2.80;2.63;;;40.70;28.90;;;;;;5216268;28;20537;-48
2022/06/26 08:44:42;;;;;;;2.58;2.47;;;41.40;28.00;;;;;;5224313;28;20194;-47
2022/06/26 08:47:17;;;;;;;2.70;2.50;;;42.40;27.10;;;;;;5228496;28;20296;-49
2022/06/26 08:49:48;;;;;;;2.42;2.33;;;43.10;26.60;;;;;;5225466;28;20667;-47
2022/06/26 08:52:20;;;;;;;4.55;3.25;;;43.50;25.90;;;;;;5219563;28;20189;-50
2022/06/26 08:54:52;;;;;;;5.50;3.03;;;42.20;26.90;;;;;;5214983;28;20296;-46
2022/06/26 08:57:23;;;;;;;3.55;3.25;;;40.00;28.60;;;;;;5223300;28;20182;-46
2022/06/26 08:59:54;;;;;;;2.80;2.70;;;38.60;30.90;;;;;;5214244;28;20570;-47
2022/06/26 09:02:24;;;;;;;2.60;2.50;;;37.70;31.90;;;;;;5219105;28;20190;-46
2022/06/26 09:04:56;;;;;;;3.45;3.17;;;36.50;32.40;;;;;;5223818;28;20247;-46
2022/06/26 09:07:27;;;;;;;3.50;3.30;;;35.20;34.30;;;;;;5213126;28;20667;-46
2022/06/26 09:10:08;;;;;;;3.28;3.08;;;33.80;36.60;;;;;;5211585;28;20210;-47
2022/06/26 09:12:39;;;;;;;3.72;3.55;;;32.80;39.10;;;;;;5200142;28;20213;-48
2022/06/26 09:15:17;;;;;;;2.70;2.60;;;32.60;40.20;;;;;;5200938;28;20254;-48
2022/06/26 09:17:59;;;;;;;3.57;3.47;;;32.50;39.60;;;;;;5213643;28;20628;-47
2022/06/26 09:20:32;;;;;;;3.43;3.23;;;31.90;39.60;;;;;;5250250;22;22325;-49
2022/06/26 09:23:06;;;;;;;3.50;3.30;;;31.50;40.80;;;;;;5259696;28;20207;-51
2022/06/26 09:25:43;;;;;;;2.07;2.07;;;31.40;41.10;;;;;;5263023;28;20355;-50
2022/06/26 09:28:17;;;;;;;6.73;2.83;;;31.30;41.20;;;;;;5242702;28;20191;-51
2022/06/26 09:30:50;;;;;;;4.57;3.33;;;31.50;40.70;;;;;;5262899;28;20193;-50
2022/06/26 09:33:29;;;;;;;4.17;3.97;;;31.50;41.30;;;;;;5245425;28;20633;-51
2022/06/26 09:36:02;;;;;;;6.20;4.33;;;31.60;42.00;;;;;;5243633;28;20299;-51
2022/06/26 09:38:34;;;;;;;3.90;3.60;;;31.70;42.00;;;;;;5260615;28;20207;-50
2022/06/26 09:41:07;;;;;;;3.87;3.67;;;32.00;41.60;;;;;;5265512;28;20209;-50
2022/06/26 09:43:41;;;;;;;4.20;3.93;;;31.90;41.60;;;;;;5244348;28;20911;-49
2022/06/26 09:46:14;;;;;;;4.40;3.73;;;31.50;41.70;;;;;;5250990;28;20314;-50
2022/06/26 09:48:44;;;;;;;3.73;3.53;;;31.40;42.50;;;;;;5265998;28;20206;-50
2022/06/26 09:51:15;;;;;;;4.10;3.87;;;31.40;43.20;;;;;;5246359;28;20197;-52
2022/06/26 09:53:46;;;;;;;4.03;3.73;;;31.70;42.50;;;;;;5258839;28;20257;-51
2022/06/26 09:56:17;;;;;;;3.13;3.03;;;31.90;42.00;;;;;;5252450;28;20208;-49
2022/06/26 09:58:51;;;;;;;3.07;2.97;;;31.90;41.40;;;;;;5231749;28;20182;-50
2022/06/26 10:07:05;;;;;;;3.70;3.50;;;32.60;41.00;;;;;;5242640;28;20314;-51
2022/06/26 10:09:36;;;;;;;4.00;3.80;;;32.80;40.10;;;;;;5250821;28;20205;-49
2022/06/26 10:12:08;;;;;;;3.40;3.13;;;32.90;40.10;;;;;;5235851;28;20200;-49
2022/06/26 10:14:44;;;;;;;4.78;4.38;;;33.10;40.50;;;;;;5260602;28;20178;-50
2022/06/26 10:17:47;;;;;;;3.57;3.47;;;33.50;40.10;;;;;;5265098;28;20659;-49
2022/06/26 10:20:19;;;;;;;4.20;3.80;;;33.20;39.70;;;;;;5266306;28;20314;-49
2022/06/26 10:22:50;;;;;;;4.80;4.50;;;32.50;41.10;;;;;;5264204;28;20269;-51
2022/06/26 10:25:25;;;;;;;4.30;3.90;;;31.90;42.10;;;;;;5251624;28;20209;-50
2022/06/26 10:27:57;;;;;;;4.00;3.80;;;31.50;42.80;;;;;;5230294;28;20177;-49
2022/06/26 10:30:29;;;;;;;4.90;3.07;;;31.50;42.90;;;;;;5250689;28;20613;-51
2022/06/26 10:33:14;;;;;;;3.23;3.10;;;31.40;43.10;;;;;;5263037;28;20250;-52
2022/06/26 10:35:47;;;;;;;7.60;3.60;;;31.70;43.60;;;;;;5261764;28;20200;-50
2022/06/26 10:38:21;;;;;;;3.90;3.70;;;31.90;42.70;;;;;;5250706;28;20211;-49
2022/06/26 10:44:13;;;;;;;4.30;3.90;;;32.40;41.90;;;;;;5262912;28;20334;-50
2022/06/26 10:46:48;;;;;;;3.70;3.60;;;32.30;42.10;;;;;;5263093;28;20282;-49
2022/06/26 10:49:18;;;;;;;4.30;3.90;;;32.10;42.20;;;;;;5262521;28;20173;-51
2022/06/26 10:51:49;;;;;;;4.50;3.83;;;31.70;42.30;;;;;;5268532;28;20520;-50
2022/06/26 10:54:25;;;;;;;3.70;3.43;;;31.60;43.10;;;;;;5262428;28;20182;-50
2022/06/26 10:57:13;;;;;;;3.47;3.37;;;31.90;43.40;;;;;;5252998;28;20188;-50
2022/06/26 10:59:44;;;;;;;4.50;4.20;;;32.30;42.80;;;;;;5249357;28;20231;-53
2022/06/26 11:02:15;;;;;;;4.37;4.17;;;32.50;42.50;;;;;;5251546;28;20285;-50
2022/06/26 11:04:48;;;;;;;4.17;3.97;;;32.30;42.30;;;;;;5261301;28;20220;-50
2022/06/26 11:07:19;;;;;;;4.20;4.00;;;31.90;42.70;;;;;;5259284;28;20205;-49
2022/06/26 11:09:54;;;;;;;4.30;4.10;;;31.70;43.20;;;;;;5249695;28;20216;-51
2022/06/26 11:12:25;;;;;;;5.27;4.83;;;31.50;43.60;;;;;;5267529;28;20204;-51
2022/06/26 11:14:56;;;;;;;3.00;2.90;;;31.00;43.80;;;;;;5269429;28;20488;-51
2022/06/26 11:17:26;;;;;;;8.10;4.43;;;30.80;44.50;;;;;;5259592;28;20189;-49
2022/06/26 11:22:46;;;;;;;4.80;4.57;;;30.40;45.30;;;;;;5249341;28;20222;-51
2022/06/26 11:25:17;;;;;;;3.87;3.67;;;30.50;45.10;;;;;;5265883;28;20519;-52
2022/06/26 11:27:51;;;;;;;7.23;3.20;;;30.60;44.70;;;;;;5262058;28;20264;-51
2022/06/26 11:30:22;;;;;;;3.20;3.03;;;30.60;44.40;;;;;;5261356;28;20200;-50
2022/06/26 11:32:52;;;;;;;5.67;3.40;;;30.60;44.40;;;;;;5254687;28;20484;-50
2022/06/26 11:35:26;;;;;;;4.30;4.10;;;30.60;44.80;;;;;;5272093;28;20252;-50
2022/06/26 11:37:57;;;;;;;3.90;3.70;;;30.80;44.90;;;;;;5271325;28;20181;-51
2022/06/26 11:40:27;;;;;;;7.40;4.03;;;31.00;44.60;;;;;;5267055;28;20455;-51
2022/06/26 11:42:58;;;;;;;6.00;3.93;;;31.30;44.50;;;;;;5240835;28;20169;-51
2022/06/26 11:45:32;;;;;;;3.80;3.60;;;31.20;43.80;;;;;;5235252;28;20182;-50
2022/06/26 11:48:08;;;;;;;4.07;3.87;;;31.10;44.40;;;;;;5249115;28;20599;-50
2022/06/26 11:50:39;;;;;;;4.00;3.70;;;31.00;44.70;;;;;;5270894;28;20450;-50
2022/06/26 11:53:09;;;;;;;4.23;4.03;;;31.10;44.30;;;;;;5261224;28;20560;-50
2022/06/26 11:55:46;;;;;;;4.03;3.80;;;31.30;43.80;;;;;;5260646;28;20178;-50
2022/06/26 11:58:20;;;;;;;3.33;3.20;;;31.40;43.70;;;;;;5251975;28;20545;-50
2022/06/26 12:01:08;;;;;;;7.33;4.03;;;31.60;43.20;;;;;;5247585;28;21025;-52
2022/06/26 12:03:48;;;;;;;4.00;3.80;;;31.40;43.40;;;;;;5246994;28;20245;-51
2022/06/26 12:06:32;;;;;;;4.20;3.90;;;30.90;44.40;;;;;;5267397;28;20455;-49
2022/06/26 12:09:19;;;;;;;3.43;3.33;;;30.80;45.00;;;;;;5261472;28;20940;-48
2022/06/26 12:11:54;;;;;;;4.60;4.20;;;30.70;44.60;;;;;;5257082;28;20493;-49
2022/06/26 12:14:27;;;;;;;3.70;3.57;;;30.70;44.50;;;;;;5251035;28;20490;-50
2022/06/26 12:17:05;;;;;;;4.10;3.87;;;30.70;44.30;;;;;;5252510;28;20466;-50
2022/06/26 12:19:39;;;;;;;3.97;3.77;;;30.80;44.10;;;;;;5251252;28;20532;-50
2022/06/26 12:22:10;;;;;;;5.03;4.73;;;30.80;44.30;;;;;;5249767;28;20435;-49
2022/06/26 12:24:50;;;;;;;6.20;3.97;;;30.80;44.70;;;;;;5233546;28;20443;-50
2022/06/26 12:27:32;;;;;;;2.90;2.80;;;30.80;44.30;;;;;;5242841;28;20193;-51
2022/06/26 12:30:17;;;;;;;4.37;4.17;;;31.10;44.10;;;;;;5256604;28;20470;-51
2022/06/26 12:32:47;;;;;;;3.63;3.53;;;31.10;43.60;;;;;;5271378;28;20828;-49
2022/06/26 12:35:18;;;;;;;4.83;3.90;;;31.10;43.70;;;;;;5267065;28;20443;-50
2022/06/26 12:37:49;;;;;;;3.97;3.70;;;31.20;44.10;;;;;;5267775;28;20181;-52
2022/06/26 12:40:20;;;;;;;4.07;3.73;;;31.40;43.40;;;;;;5252480;28;20209;-50
2022/06/26 12:42:51;;;;;;;4.87;4.57;;;31.70;43.80;;;;;;5267991;28;20228;-50
2022/06/26 12:45:22;;;;;;;4.20;3.80;;;31.90;43.10;;;;;;5270638;28;20197;-51
2022/06/26 12:47:53;;;;;;;4.73;4.20;;;31.80;42.00;;;;;;5253477;28;20188;-50
2022/06/26 12:50:23;;;;;;;4.87;4.57;;;31.50;43.10;;;;;;5252667;28;20243;-50
2022/06/26 12:52:54;;;;;;;4.77;4.50;;;31.40;43.10;;;;;;5263978;28;20225;-51
2022/06/26 12:55:24;;;;;;;4.90;4.60;;;31.30;43.40;;;;;;5252010;28;20186;-52
2022/06/26 12:57:55;;;;;;;4.90;4.60;;;31.20;44.00;;;;;;5266415;28;20611;-50
2022/06/26 13:00:26;;;;;;;4.67;4.47;;;31.30;43.50;;;;;;5246443;28;20258;-49
2022/06/26 13:02:56;;;;;;;6.97;3.97;;;31.30;43.10;;;;;;5266856;28;20184;-50
2022/06/26 13:05:27;;;;;;;4.23;3.93;;;31.30;42.90;;;;;;5268430;28;20220;-50
2022/06/26 13:07:58;;;;;;;7.77;3.80;;;31.40;42.60;;;;;;5266102;28;20179;-51
2022/06/26 13:10:28;;;;;;;4.60;4.20;;;31.60;42.30;;;;;;5264607;28;20205;-51
2022/06/26 13:12:59;;;;;;;4.10;3.90;;;31.80;41.50;;;;;;5260024;28;20595;-51
2022/06/26 13:15:29;;;;;;;4.70;4.30;;;32.00;41.60;;;;;;5241326;28;20187;-50
2022/06/26 13:18:00;;;;;;;4.40;4.10;;;32.00;41.80;;;;;;5271094;28;20181;-51
2022/06/26 13:20:32;;;;;;;3.77;3.57;;;31.90;41.70;;;;;;5253093;28;20319;-50